Time;durP1;ratioP1;P1;durP2;ratioP2;P2;SDS_P1;SDS_P2;PMS_P1;PMS_P2;Temp;Humidity;BMP_temperature;BMP_pressure;BME280_temperature;BME280_humidity;BME280_pressure;Samples;Min_cycle;Max_cycle;Signal;HPM_P1;HPM_P2
2023/09/23 00:01:04;;;;;;;4.60;4.20;;;12.50;87.70;;;;;;5036643;28;20075;-83
2023/09/23 00:03:33;;;;;;;5.85;3.58;;;12.60;88.60;;;;;;5050907;28;20060;-86
2023/09/23 00:06:00;;;;;;;4.95;3.53;;;12.60;88.90;;;;;;5050331;28;20044;-84
2023/09/23 00:08:26;;;;;;;3.40;3.08;;;12.60;88.90;;;;;;5036621;28;20044;-83
2023/09/23 00:10:51;;;;;;;3.20;2.90;;;12.60;88.40;;;;;;5054004;28;20044;-89
2023/09/23 00:13:20;;;;;;;4.17;3.00;;;12.50;88.60;;;;;;5053858;28;20053;-83
2023/09/23 00:15:46;;;;;;;2.35;2.15;;;12.50;89.20;;;;;;5053756;28;20075;-83
2023/09/23 00:18:15;;;;;;;2.40;2.20;;;12.50;89.50;;;;;;5031163;28;20033;-83
2023/09/23 00:20:42;;;;;;;4.15;2.97;;;12.50;89.20;;;;;;5053629;28;20048;-83
2023/09/23 00:23:08;;;;;;;3.13;2.00;;;12.50;89.10;;;;;;5033715;28;20053;-83
2023/09/23 00:25:34;;;;;;;2.43;2.07;;;12.50;88.70;;;;;;5052926;28;20068;-83
2023/09/23 00:28:00;;;;;;;2.60;2.40;;;12.40;88.20;;;;;;5053469;28;20406;-83
2023/09/23 00:30:26;;;;;;;2.93;1.60;;;12.40;89.00;;;;;;5055644;28;20045;-83
2023/09/23 00:32:52;;;;;;;3.42;1.70;;;12.40;88.50;;;;;;5053681;28;20521;-83
2023/09/23 00:35:18;;;;;;;2.53;1.83;;;12.40;89.10;;;;;;5070367;28;20081;-83
2023/09/23 00:37:48;;;;;;;4.93;2.03;;;12.40;88.90;;;;;;5055205;28;20288;-82
2023/09/23 00:40:20;;;;;;;3.95;1.83;;;12.30;88.40;;;;;;5053399;28;20040;-83
2023/09/23 00:42:48;;;;;;;2.33;1.60;;;12.30;89.00;;;;;;5053992;28;20045;-83
2023/09/23 00:45:15;;;;;;;1.60;1.50;;;12.30;89.60;;;;;;5052900;28;20041;-83
2023/09/23 00:47:45;;;;;;;2.60;1.38;;;12.30;89.70;;;;;;5036658;28;20097;-82
2023/09/23 00:50:22;;;;;;;10.77;2.35;;;12.30;89.60;;;;;;5034616;28;20466;-83
2023/09/23 00:52:53;;;;;;;1.73;0.98;;;12.20;89.60;;;;;;5034027;28;20046;-82
2023/09/23 00:55:24;;;;;;;2.70;1.00;;;12.20;88.90;;;;;;5048613;28;20068;-84
2023/09/23 00:57:53;;;;;;;1.38;1.00;;;12.20;89.70;;;;;;5053256;28;20544;-83
2023/09/23 01:00:27;;;;;;;1.52;1.17;;;12.20;89.80;;;;;;5050394;28;20057;-83
2023/09/23 01:02:56;;;;;;;3.33;1.45;;;12.20;89.90;;;;;;5052440;28;20508;-83
2023/09/23 01:05:29;;;;;;;3.83;1.30;;;12.10;90.50;;;;;;5051761;28;20079;-86
2023/09/23 01:07:59;;;;;;;1.35;1.25;;;12.10;91.00;;;;;;5050491;28;20124;-83
2023/09/23 01:10:25;;;;;;;2.72;1.30;;;12.10;91.40;;;;;;5035518;28;20392;-83
2023/09/23 01:12:51;;;;;;;2.70;1.50;;;12.10;91.60;;;;;;5052891;28;20045;-83
2023/09/23 01:15:18;;;;;;;1.47;1.37;;;12.10;91.90;;;;;;5051984;28;20785;-82
2023/09/23 01:17:49;;;;;;;4.32;1.70;;;12.10;91.80;;;;;;5035761;28;20045;-83
2023/09/23 01:20:16;;;;;;;2.72;1.67;;;12.00;92.20;;;;;;5049796;28;20048;-83
2023/09/23 01:22:43;;;;;;;;;;;12.00;92.20;;;;;;5052385;28;20125;-82
2023/09/23 01:25:09;;;;;;;2.67;1.53;;;12.00;94.70;;;;;;5051549;28;19931;-83
2023/09/23 01:27:34;;;;;;;3.80;1.60;;;12.00;92.30;;;;;;5052804;28;20299;-83
2023/09/23 01:30:03;;;;;;;1.77;1.67;;;12.00;92.30;;;;;;5052865;28;20037;-83
2023/09/23 01:32:51;;;;;;;2.47;1.75;;;12.00;92.50;;;;;;5051599;28;20049;-82
2023/09/23 01:35:17;;;;;;;;;;;12.00;93.50;;;;;;5051784;28;20083;-83
2023/09/23 01:37:44;;;;;;;2.17;1.73;;;11.90;96.40;;;;;;5051446;28;20003;-83
2023/09/23 01:40:17;;;;;;;4.80;1.70;;;11.90;93.20;;;;;;5034709;28;20112;-83
2023/09/23 01:42:51;;;;;;;3.08;2.15;;;12.00;93.30;;;;;;5050001;28;20040;-83
2023/09/23 01:45:19;;;;;;;2.50;2.30;;;11.90;93.80;;;;;;5052228;28;20045;-83
2023/09/23 01:47:46;;;;;;;3.13;2.70;;;12.00;94.40;;;;;;5033997;28;20120;-83
2023/09/23 01:50:13;;;;;;;3.22;2.92;;;12.00;94.80;;;;;;5050879;28;20085;-83
2023/09/23 01:52:42;;;;;;;3.78;3.42;;;12.00;95.60;;;;;;5051430;28;20102;-83
2023/09/23 01:55:10;;;;;;;3.25;3.05;;;11.90;95.40;;;;;;5052185;28;20052;-89
2023/09/23 01:57:36;;;;;;;4.22;3.05;;;12.00;95.60;;;;;;5050494;28;20513;-82
2023/09/23 02:00:17;;;;;;;3.70;3.25;;;12.00;96.20;;;;;;5050155;28;20037;-83
2023/09/23 02:02:43;;;;;;;5.82;3.00;;;12.00;96.50;;;;;;5047089;28;20052;-83
2023/09/23 02:05:08;;;;;;;4.53;3.07;;;12.00;96.80;;;;;;5050474;28;20041;-88
2023/09/23 02:07:34;;;;;;;4.13;3.73;;;12.00;97.00;;;;;;5050897;28;20094;-84
2023/09/23 02:10:00;;;;;;;4.53;3.73;;;12.00;97.30;;;;;;5050759;28;20124;-83
2023/09/23 02:12:26;;;;;;;5.88;4.70;;;12.00;97.60;;;;;;5050414;28;20153;-83
2023/09/23 02:14:53;;;;;;;4.50;4.07;;;12.00;97.80;;;;;;5051025;28;20048;-82
2023/09/23 02:17:20;;;;;;;5.25;3.83;;;12.00;97.80;;;;;;5050887;28;20053;-84
2023/09/23 02:19:46;;;;;;;;;;;12.00;98.10;;;;;;5051580;28;20593;-83
2023/09/23 02:22:12;;;;;;;6.45;5.32;;;12.00;99.90;;;;;;5051902;28;20363;-88
2023/09/23 02:24:40;;;;;;;6.73;5.73;;;12.10;98.50;;;;;;5052045;28;20033;-83
2023/09/23 02:27:06;;;;;;;6.13;4.53;;;12.00;98.40;;;;;;5050524;28;20086;-83
2023/09/23 02:29:32;;;;;;;6.38;4.85;;;12.00;98.20;;;;;;5051115;28;20171;-83
2023/09/23 02:31:59;;;;;;;5.68;5.03;;;12.00;98.10;;;;;;5050508;28;20432;-82
2023/09/23 02:34:25;;;;;;;5.53;4.47;;;11.90;98.30;;;;;;5051155;28;20048;-84
2023/09/23 02:36:50;;;;;;;5.20;4.70;;;12.00;98.20;;;;;;5050547;28;20049;-82
2023/09/23 02:39:19;;;;;;;4.73;4.23;;;11.90;98.00;;;;;;5051243;28;20041;-83
2023/09/23 02:41:49;;;;;;;6.28;4.78;;;11.90;98.20;;;;;;5034639;28;20052;-82
2023/09/23 02:44:20;;;;;;;6.18;5.13;;;11.90;98.20;;;;;;5033382;28;20045;-89
2023/09/23 02:46:46;;;;;;;4.57;4.05;;;11.80;97.90;;;;;;5048463;28;20049;-82
2023/09/23 02:49:13;;;;;;;7.43;5.03;;;11.80;97.70;;;;;;5050466;28;20118;-86
2023/09/23 02:51:38;;;;;;;5.90;4.50;;;10.90;97.40;;;;;;5049900;28;20119;-83
2023/09/23 02:54:05;;;;;;;5.20;4.70;;;11.70;97.60;;;;;;5033291;28;20124;-83
2023/09/23 02:56:34;;;;;;;6.75;4.70;;;11.70;97.50;;;;;;5047343;28;20051;-82
2023/09/23 02:59:00;;;;;;;5.80;5.20;;;11.60;97.20;;;;;;5050287;28;20053;-83
2023/09/23 03:01:27;;;;;;;;;;;11.60;96.70;;;;;;5049986;28;20080;-83
2023/09/23 03:03:55;;;;;;;7.75;5.25;;;11.60;96.40;;;;;;5051368;28;19920;-82
2023/09/23 03:06:25;;;;;;;6.60;5.05;;;11.50;97.10;;;;;;5050557;28;20053;-83
2023/09/23 03:08:54;;;;;;;5.68;4.63;;;11.50;97.00;;;;;;5031483;28;20052;-83
2023/09/23 03:11:26;;;;;;;6.03;5.43;;;11.40;96.80;;;;;;5050017;28;20106;-89
2023/09/23 03:13:52;;;;;;;7.13;5.35;;;11.40;96.70;;;;;;5049372;28;20487;-83
2023/09/23 03:16:28;;;;;;;7.03;5.78;;;11.40;96.70;;;;;;5032507;28;20432;-88
2023/09/23 03:18:59;;;;;;;7.35;6.10;;;11.30;96.80;;;;;;5048125;28;20075;-83
2023/09/23 03:21:25;;;;;;;6.57;5.88;;;11.30;96.90;;;;;;5049312;28;20037;-83
2023/09/23 03:23:51;;;;;;;6.83;6.13;;;11.30;97.00;;;;;;5050716;28;20048;-84
2023/09/23 03:26:19;;;;;;;6.77;6.13;;;11.30;96.90;;;;;;5032914;28;20122;-83
2023/09/23 03:28:46;;;;;;;6.60;5.90;;;11.20;97.30;;;;;;5049515;28;20048;-83
2023/09/23 03:31:14;;;;;;;8.85;7.03;;;11.20;97.60;;;;;;5049697;28;20057;-86
2023/09/23 03:33:41;;;;;;;7.68;6.90;;;11.20;97.60;;;;;;5049491;28;20048;-83
2023/09/23 03:36:14;;;;;;;7.88;6.97;;;11.20;97.50;;;;;;5051077;28;20049;-83
2023/09/23 03:38:39;;;;;;;7.55;6.78;;;11.20;97.70;;;;;;5050321;28;20045;-84
2023/09/23 03:41:05;;;;;;;8.77;7.07;;;11.10;97.90;;;;;;5017165;28;20045;-83
2023/09/23 03:43:31;;;;;;;7.00;6.30;;;11.10;98.10;;;;;;5040884;28;20039;-83
2023/09/23 03:45:56;;;;;;;8.73;7.53;;;11.10;98.10;;;;;;5049740;28;20044;-83
2023/09/23 03:48:22;;;;;;;12.07;8.73;;;11.10;97.90;;;;;;5049615;28;20076;-83
2023/09/23 03:50:52;;;;;;;7.93;7.20;;;11.00;97.80;;;;;;5050708;28;20044;-83
2023/09/23 03:53:21;;;;;;;10.63;8.38;;;11.00;97.60;;;;;;5048650;28;20076;-83
2023/09/23 03:55:49;;;;;;;10.85;9.02;;;11.00;98.00;;;;;;5049944;28;20044;-83
2023/09/23 03:58:17;;;;;;;12.40;9.10;;;10.90;98.20;;;;;;5049498;28;20056;-83
2023/09/23 04:00:43;;;;;;;9.77;8.77;;;10.90;98.40;;;;;;5016848;28;20052;-82
2023/09/23 04:03:10;;;;;;;11.75;8.70;;;10.90;98.50;;;;;;5050526;28;20045;-84
2023/09/23 04:05:36;;;;;;;10.73;9.40;;;10.90;99.00;;;;;;5050012;28;20048;-84
2023/09/23 04:08:02;;;;;;;11.23;8.60;;;10.90;98.80;;;;;;5050008;28;20037;-83
2023/09/23 04:10:28;;;;;;;10.13;8.50;;;10.80;98.70;;;;;;5048692;28;20501;-88
2023/09/23 04:12:54;;;;;;;10.80;9.77;;;10.80;98.50;;;;;;5049050;28;20125;-83
2023/09/23 04:15:21;;;;;;;10.52;8.95;;;10.80;98.70;;;;;;5049735;28;20045;-83
2023/09/23 04:17:47;;;;;;;;;;;10.80;98.60;;;;;;5050292;28;20048;-82
2023/09/23 04:20:14;;;;;;;11.05;8.45;;;10.80;99.90;;;;;;5050104;28;20259;-83
2023/09/23 04:22:41;;;;;;;10.57;8.52;;;10.80;99.40;;;;;;5053681;28;20049;-83
2023/09/23 04:25:08;;;;;;;10.68;8.77;;;10.70;99.10;;;;;;5053489;28;20033;-83
2023/09/23 04:27:38;;;;;;;10.20;9.07;;;10.70;99.60;;;;;;5052648;28;20041;-83
2023/09/23 04:30:09;;;;;;;9.82;8.82;;;10.70;99.50;;;;;;5054126;28;20045;-83
2023/09/23 04:32:39;;;;;;;10.15;9.15;;;10.70;99.60;;;;;;5053414;28;20487;-82
2023/09/23 04:35:11;;;;;;;11.43;9.65;;;10.70;99.60;;;;;;5052059;28;20041;-83
2023/09/23 04:37:37;;;;;;;12.20;9.93;;;10.70;99.60;;;;;;5053329;28;20044;-83
2023/09/23 04:40:11;;;;;;;10.20;8.80;;;10.70;99.50;;;;;;5053726;28;20052;-82
2023/09/23 04:42:41;;;;;;;12.10;9.77;;;10.70;99.80;;;;;;5053387;28;20501;-83
2023/09/23 04:45:09;;;;;;;10.52;8.77;;;10.70;99.70;;;;;;5052009;28;20058;-84
2023/09/23 04:47:38;;;;;;;12.30;9.43;;;10.60;99.60;;;;;;5050822;28;20045;-83
2023/09/23 04:50:05;;;;;;;11.30;10.10;;;10.60;99.30;;;;;;5053979;28;20051;-84
2023/09/23 04:52:31;;;;;;;;;;;10.60;99.30;;;;;;5049930;28;20208;-86
2023/09/23 04:54:57;;;;;;;10.82;9.07;;;10.50;99.90;;;;;;5033005;28;19921;-82
2023/09/23 04:57:22;;;;;;;12.47;10.13;;;10.50;99.60;;;;;;5036165;28;20044;-83
2023/09/23 04:59:49;;;;;;;10.77;8.80;;;10.50;99.30;;;;;;5051859;28;20128;-83
2023/09/23 05:02:17;;;;;;;10.85;9.18;;;10.50;99.30;;;;;;5035015;28;20049;-83
2023/09/23 05:04:46;;;;;;;10.07;9.02;;;10.40;99.40;;;;;;5052888;28;20045;-83
2023/09/23 05:07:12;;;;;;;13.80;10.90;;;10.40;99.50;;;;;;5055330;28;20045;-85
2023/09/23 05:09:41;;;;;;;12.15;10.90;;;10.40;99.60;;;;;;5018593;28;20041;-87
2023/09/23 05:12:10;;;;;;;10.75;9.18;;;10.40;99.60;;;;;;5035495;28;20133;-88
2023/09/23 05:14:37;;;;;;;11.93;10.73;;;10.40;99.70;;;;;;5052288;28;20045;-89
2023/09/23 05:17:05;;;;;;;13.75;11.68;;;10.40;99.80;;;;;;5052809;28;20430;-85
2023/09/23 05:19:32;;;;;;;12.52;10.55;;;10.30;99.90;;;;;;5042854;28;20049;-85
2023/09/23 05:21:58;;;;;;;16.73;12.07;;;10.30;99.90;;;;;;5050074;28;20574;-85
2023/09/23 05:24:27;;;;;;;;;;;10.30;99.90;;;;;;5036493;28;20085;-89
2023/09/23 05:26:56;;;;;;;12.85;10.60;;;10.30;99.90;;;;;;5035356;28;20291;-88
2023/09/23 05:29:22;;;;;;;12.95;10.18;;;10.30;99.90;;;;;;5019196;28;20044;-88
2023/09/23 05:31:48;;;;;;;14.18;11.93;;;10.30;99.90;;;;;;5051183;28;20048;-89
2023/09/23 05:34:20;;;;;;;14.50;11.73;;;10.30;99.90;;;;;;5035209;28;20040;-89
2023/09/23 05:36:46;;;;;;;13.95;12.55;;;10.30;99.90;;;;;;5017593;28;20483;-88
2023/09/23 05:39:15;;;;;;;14.27;12.75;;;10.30;99.90;;;;;;5052748;28;20051;-87
2023/09/23 05:41:41;;;;;;;15.82;13.50;;;10.30;99.90;;;;;;5047632;28;20456;-89
2023/09/23 05:44:07;;;;;;;17.02;13.43;;;10.30;99.90;;;;;;5050347;28;20124;-86
2023/09/23 05:46:37;;;;;;;18.00;13.80;;;10.40;99.90;;;;;;4986086;28;20428;-88
2023/09/23 05:49:09;;;;;;;18.77;14.65;;;10.40;99.90;;;;;;3984387;28;13116742;-89
2023/09/23 05:51:37;;;;;;;21.95;16.70;;;10.30;99.90;;;;;;4950441;28;20171;-85
2023/09/23 05:54:15;;;;;;;19.67;16.83;;;10.40;99.90;;;;;;4942793;28;20035;-91
2023/09/23 05:56:44;;;;;;;24.15;17.65;;;10.40;99.90;;;;;;4968109;28;20518;-90
2023/09/23 05:59:10;;;;;;;34.42;20.20;;;10.10;99.90;;;;;;4960738;28;20506;-88
2023/09/23 06:01:43;;;;;;;28.15;20.63;;;10.50;99.90;;;;;;4957804;28;20051;-89
2023/09/23 06:04:13;;;;;;;27.15;21.55;;;10.50;99.90;;;;;;4944224;29;20070;-88
2023/09/23 06:06:41;;;;;;;32.30;22.67;;;10.50;99.90;;;;;;4940095;29;20051;-88
2023/09/23 06:09:07;;;;;;;35.90;24.73;;;10.60;99.90;;;;;;4962046;28;20134;-90
2023/09/23 06:11:43;;;;;;;32.35;23.45;;;10.60;99.90;;;;;;4966918;28;20046;-88
2023/09/23 06:14:10;;;;;;;32.83;25.77;;;10.60;99.90;;;;;;4961440;28;20055;-88
2023/09/23 06:16:36;;;;;;;41.28;26.48;;;10.60;99.90;;;;;;4966826;28;20039;-87
2023/09/23 06:19:02;;;;;;;36.23;28.67;;;10.60;99.90;;;;;;4960046;28;20459;-93
2023/09/23 06:21:30;;;;;;;34.03;27.13;;;10.70;99.90;;;;;;4947644;28;20043;-90
2023/09/23 06:23:56;;;;;;;39.70;27.85;;;10.70;99.90;;;;;;4962948;28;20055;-89
2023/09/23 06:26:25;;;;;;;38.00;27.93;;;10.90;99.90;;;;;;4943327;28;20051;-91
2023/09/23 06:28:53;;;;;;;33.95;27.50;;;10.80;99.90;;;;;;4964016;28;20130;-87
2023/09/23 06:31:19;;;;;;;38.20;29.48;;;10.90;99.90;;;;;;4964396;28;20062;-89
2023/09/23 06:33:49;;;;;;;38.63;28.17;;;11.00;99.90;;;;;;4950340;28;20041;-91
2023/09/23 06:36:18;;;;;;;40.75;27.85;;;11.00;99.90;;;;;;4960693;28;20070;-89
2023/09/23 06:38:46;;;;;;;39.37;30.13;;;11.10;99.90;;;;;;4953639;29;20047;-90
2023/09/23 06:41:17;;;;;;;40.00;29.90;;;11.10;99.90;;;;;;4953472;29;20051;-89
2023/09/23 06:43:43;;;;;;;38.97;30.65;;;11.10;99.90;;;;;;4937294;29;20513;-89
2023/09/23 06:46:09;;;;;;;37.88;27.20;;;11.20;99.90;;;;;;4937774;29;20109;-90
2023/09/23 06:48:54;;;;;;;37.47;27.67;;;11.20;99.90;;;;;;4937542;29;20520;-90
2023/09/23 06:51:30;;;;;;;33.60;26.77;;;12.30;99.90;;;;;;4938068;29;20287;-89
2023/09/23 06:53:55;;;;;;;35.38;26.27;;;11.30;99.90;;;;;;4953542;29;20051;-91
2023/09/23 06:56:24;;;;;;;38.63;29.17;;;11.40;99.90;;;;;;4953434;28;20043;-90
2023/09/23 06:58:59;;;;;;;36.35;27.35;;;11.30;99.90;;;;;;4954061;29;20629;-90
2023/09/23 07:01:30;;;;;;;39.40;28.40;;;12.30;99.90;;;;;;4954135;29;20054;-89
2023/09/23 07:04:14;;;;;;;39.42;28.80;;;11.70;99.90;;;;;;4953522;29;20493;-90
2023/09/23 07:06:40;;;;;;;33.22;26.23;;;11.80;99.90;;;;;;4953500;29;20094;-90
2023/09/23 07:09:10;;;;;;;33.23;26.70;;;11.80;99.90;;;;;;4937243;29;20094;-89
2023/09/23 07:11:37;;;;;;;34.35;26.75;;;11.80;99.90;;;;;;4954034;29;20294;-90
2023/09/23 07:14:06;;;;;;;34.72;26.58;;;11.80;99.90;;;;;;4936985;29;20051;-89
2023/09/23 07:16:40;;;;;;;31.70;25.08;;;11.90;99.90;;;;;;4937664;29;20102;-89
2023/09/23 07:19:10;;;;;;;29.33;24.05;;;11.80;99.90;;;;;;4953277;29;20490;-89
2023/09/23 07:21:36;;;;;;;29.52;24.38;;;11.90;99.90;;;;;;4953480;29;20059;-89
2023/09/23 07:24:01;;;;;;;28.90;23.23;;;11.80;99.90;;;;;;4937502;29;20054;-89
2023/09/23 07:26:29;;;;;;;29.05;23.15;;;11.80;99.90;;;;;;4953411;29;20047;-89
2023/09/23 07:28:58;;;;;;;31.90;24.30;;;11.90;99.90;;;;;;4937691;29;20053;-91
2023/09/23 07:31:29;;;;;;;28.65;23.27;;;12.10;99.90;;;;;;4937610;29;20564;-89
2023/09/23 07:34:02;;;;;;;31.05;25.35;;;12.40;99.90;;;;;;4953176;29;20039;-90
2023/09/23 07:36:31;;;;;;;26.98;22.83;;;12.60;99.90;;;;;;4953467;29;20051;-90
2023/09/23 07:39:00;;;;;;;32.17;22.75;;;13.00;99.90;;;;;;4953690;29;20054;-91
2023/09/23 07:41:30;;;;;;;27.20;22.13;;;12.50;97.90;;;;;;4953704;29;20093;-89
2023/09/23 07:44:19;;;;;;;26.55;21.88;;;13.70;95.10;;;;;;4953317;29;20556;-91
2023/09/23 07:46:48;;;;;;;25.10;20.17;;;13.90;93.20;;;;;;4938282;29;20130;-89
2023/09/23 07:49:16;;;;;;;25.08;20.35;;;14.00;93.10;;;;;;4953284;29;20097;-89
2023/09/23 07:51:44;;;;;;;21.42;19.23;;;14.00;92.00;;;;;;4953625;29;20106;-89
2023/09/23 07:54:09;;;;;;;22.40;20.00;;;14.00;91.10;;;;;;4936573;28;20131;-89
2023/09/23 07:56:38;;;;;;;21.07;18.77;;;14.00;87.20;;;;;;4956357;29;20464;-89
2023/09/23 07:59:04;;;;;;;25.58;22.35;;;14.00;86.40;;;;;;4940735;29;20062;-90
2023/09/23 08:01:30;;;;;;;21.10;18.75;;;14.10;82.90;;;;;;4956643;29;20047;-89
2023/09/23 08:03:58;;;;;;;24.85;21.02;;;14.10;82.00;;;;;;4957012;29;20109;-89
2023/09/23 08:06:24;;;;;;;23.50;19.92;;;14.40;82.70;;;;;;4940788;29;20062;-89
2023/09/23 08:08:51;;;;;;;18.13;16.23;;;14.50;80.50;;;;;;4956916;29;20047;-89
2023/09/23 08:11:20;;;;;;;18.25;16.17;;;13.90;77.20;;;;;;4956652;29;20064;-89
2023/09/23 08:13:48;;;;;;;21.38;18.27;;;14.00;76.20;;;;;;4940573;29;20062;-89
2023/09/23 08:16:22;;;;;;;21.73;18.60;;;14.20;76.50;;;;;;4940831;29;20051;-89
2023/09/23 08:18:48;;;;;;;21.60;17.35;;;14.20;77.50;;;;;;4943413;29;20055;-90
2023/09/23 08:21:19;;;;;;;18.35;16.45;;;14.20;79.40;;;;;;4960096;29;20043;-89
2023/09/23 08:23:50;;;;;;;18.48;16.63;;;14.20;78.30;;;;;;4959064;29;20046;-89
2023/09/23 08:26:18;;;;;;;17.10;15.40;;;14.20;76.30;;;;;;4957494;29;20047;-89
2023/09/23 08:28:51;;;;;;;20.08;17.25;;;14.30;76.30;;;;;;4942287;29;20498;-89
2023/09/23 08:31:22;;;;;;;20.17;15.68;;;14.50;79.30;;;;;;4956701;29;20482;-89
2023/09/23 08:33:47;;;;;;;17.23;15.43;;;14.60;76.80;;;;;;4959897;29;20047;-89
2023/09/23 08:36:13;;;;;;;19.08;15.60;;;14.60;75.50;;;;;;4956107;29;20070;-89
2023/09/23 08:38:41;;;;;;;18.60;14.30;;;14.70;74.30;;;;;;4940845;29;20139;-89
2023/09/23 08:41:07;;;;;;;16.20;13.77;;;14.80;72.20;;;;;;4955815;29;20297;-91
2023/09/23 08:43:37;;;;;;;19.40;13.75;;;15.00;69.00;;;;;;4956459;29;20134;-90
2023/09/23 08:46:07;;;;;;;15.00;13.40;;;14.90;66.40;;;;;;4956471;29;20047;-90
2023/09/23 08:48:35;;;;;;;17.63;13.68;;;14.90;65.00;;;;;;4940514;29;20409;-90
2023/09/23 08:51:05;;;;;;;13.80;12.38;;;14.80;67.00;;;;;;4939837;29;20039;-89
2023/09/23 08:53:34;;;;;;;16.73;14.75;;;14.80;65.70;;;;;;4958734;29;20512;-89
2023/09/23 08:56:04;;;;;;;15.38;12.68;;;14.80;67.40;;;;;;4956085;29;20051;-89
2023/09/23 08:58:33;;;;;;;15.63;13.38;;;14.80;67.30;;;;;;4955760;29;20059;-89
2023/09/23 09:00:58;;;;;;;18.15;13.80;;;14.90;66.10;;;;;;4956023;29;20130;-89
2023/09/23 09:03:25;;;;;;;15.98;12.10;;;14.90;65.30;;;;;;4955683;29;20190;-89
2023/09/23 09:05:54;;;;;;;13.32;12.05;;;14.90;62.90;;;;;;4939817;28;20109;-89
2023/09/23 09:08:20;;;;;;;13.10;11.35;;;14.70;59.50;;;;;;4940465;29;20047;-89
2023/09/23 09:10:48;;;;;;;13.68;12.27;;;15.00;59.50;;;;;;4956169;29;20051;-89
2023/09/23 09:13:17;;;;;;;13.75;12.35;;;14.70;62.00;;;;;;4957146;29;20066;-90
2023/09/23 09:15:45;;;;;;;16.00;12.75;;;14.60;62.40;;;;;;4956378;29;20047;-89
2023/09/23 09:18:11;;;;;;;14.43;12.93;;;13.80;62.80;;;;;;4939304;29;20047;-92
2023/09/23 09:20:43;;;;;;;13.10;11.70;;;13.90;64.10;;;;;;4941578;29;20073;-90
2023/09/23 09:23:15;;;;;;;16.58;13.75;;;14.80;64.00;;;;;;4958378;29;20055;-89
2023/09/23 09:25:56;;;;;;;16.90;12.15;;;14.90;61.30;;;;;;4956330;29;20114;-90
2023/09/23 09:28:23;;;;;;;13.73;12.35;;;15.10;59.10;;;;;;4956837;29;20051;-90
2023/09/23 09:30:56;;;;;;;;;;;14.90;57.60;;;;;;4957025;29;20055;-90
2023/09/23 09:33:26;;;;;;;12.75;11.55;;;14.80;47.00;;;;;;4955793;28;19950;-90
2023/09/23 09:35:56;;;;;;;15.77;11.60;;;14.80;59.50;;;;;;4939793;29;20110;-89
2023/09/23 09:38:25;;;;;;;12.23;11.02;;;14.80;56.90;;;;;;4956138;29;20539;-90
2023/09/23 09:41:00;;;;;;;13.05;11.60;;;14.70;56.20;;;;;;4955236;29;20059;-90
2023/09/23 09:43:34;;;;;;;11.77;10.70;;;14.60;53.90;;;;;;4940138;29;20143;-90
2023/09/23 09:46:09;;;;;;;12.82;11.63;;;14.70;57.90;;;;;;4956649;29;20047;-90
2023/09/23 09:48:41;;;;;;;13.52;9.82;;;15.10;58.90;;;;;;4956288;29;20512;-90
2023/09/23 09:51:15;;;;;;;10.48;9.55;;;15.20;48.20;;;;;;4955977;29;20047;-90
2023/09/23 09:53:44;;;;;;;10.45;8.95;;;15.30;47.80;;;;;;4955407;29;20040;-90
2023/09/23 09:56:21;;;;;;;10.30;9.30;;;15.40;48.50;;;;;;4955620;29;20065;-90
2023/09/23 09:58:47;;;;;;;;;;;15.60;50.80;;;;;;4956142;29;20083;-90
2023/09/23 10:01:52;;;;;;;;;;;;;;;;;;;;;
2023/09/23 10:04:37;;;;;;;10.02;8.63;;;16.00;45.50;;;;;;4956049;29;20489;-89
2023/09/23 10:07:08;;;;;;;9.65;8.40;;;16.30;37.90;;;;;;4961941;29;20094;-89
2023/09/23 10:09:38;;;;;;;9.43;8.13;;;16.30;34.60;;;;;;4954975;29;20051;-89
2023/09/23 10:12:08;;;;;;;10.55;7.70;;;16.40;29.30;;;;;;4955805;29;20055;-89
2023/09/23 10:14:34;;;;;;;10.60;7.95;;;16.30;25.60;;;;;;4955228;29;20051;-89
2023/09/23 10:17:04;;;;;;;9.40;7.22;;;16.40;25.10;;;;;;4956507;29;20367;-88
2023/09/23 10:19:36;;;;;;;8.40;7.60;;;16.50;23.50;;;;;;4939978;29;20058;-90
2023/09/23 10:22:20;;;;;;;7.60;6.78;;;16.60;23.60;;;;;;4955550;29;20074;-89
2023/09/23 10:25:04;;;;;;;7.28;6.60;;;16.90;15.90;;;;;;4956301;29;20047;-89
2023/09/23 10:27:36;;;;;;;7.10;6.13;;;16.40;13.70;;;;;;4955711;29;20047;-89
2023/09/23 10:30:05;;;;;;;6.20;5.50;;;17.30;7.70;;;;;;4955862;29;20054;-90
2023/09/23 10:32:32;;;;;;;7.55;5.80;;;17.30;1.00;;;;;;4955087;29;20083;-89
2023/09/23 10:35:01;;;;;;;5.70;5.15;;;17.20;1.00;;;;;;4954749;29;20134;-89
2023/09/23 10:37:32;;;;;;;6.03;5.53;;;17.10;1.00;;;;;;4954837;29;20043;-90
2023/09/23 10:40:13;;;;;;;7.47;5.45;;;16.90;1.00;;;;;;4956580;29;20058;-90
2023/09/23 10:42:48;;;;;;;7.57;4.97;;;16.80;1.00;;;;;;4954966;29;20051;-89
2023/09/23 10:45:25;;;;;;;6.20;3.88;;;16.60;1.00;;;;;;4956213;29;20043;-89
2023/09/23 10:47:53;;;;;;;5.13;4.25;;;16.60;2.30;;;;;;4956826;29;20089;-89
2023/09/23 10:50:27;;;;;;;6.05;4.55;;;16.60;2.70;;;;;;4953832;29;20082;-89
2023/09/23 10:52:56;;;;;;;6.35;4.00;;;16.60;3.40;;;;;;4953951;29;20047;-89
2023/09/23 10:55:22;;;;;;;3.60;3.30;;;16.60;4.80;;;;;;4939489;29;20105;-89
2023/09/23 10:57:50;;;;;;;;;;;16.50;2.50;;;;;;4955054;28;20094;-90
2023/09/23 11:00:20;;;;;;;4.95;4.13;;;16.30;1.00;;;;;;4956846;28;19989;-91
2023/09/23 11:02:55;;;;;;;7.47;4.40;;;16.20;10.00;;;;;;4956593;29;20198;-90
2023/09/23 11:05:22;;;;;;;7.43;4.30;;;15.70;8.70;;;;;;4956757;29;20055;-89
2023/09/23 11:07:59;;;;;;;;;;;;;;;;;;;;;
2023/09/23 11:10:27;;;;;;;8.45;4.35;;;16.00;14.10;;;;;;4953826;29;20055;-90
2023/09/23 11:13:06;;;;;;;;;;;;;;;;;;;;;
2023/09/23 11:15:32;;;;;;;8.20;3.95;;;16.30;23.50;;;;;;4953120;29;20482;-91
2023/09/23 11:18:04;;;;;;;5.18;3.70;;;15.90;28.10;;;;;;4953765;29;20565;-90
2023/09/23 11:20:31;;;;;;;4.95;4.05;;;15.50;27.90;;;;;;4953293;29;20079;-92
2023/09/23 11:23:03;;;;;;;7.90;4.00;;;16.30;25.00;;;;;;4953584;29;20114;-90
2023/09/23 11:25:46;;;;;;;4.78;4.00;;;16.20;20.90;;;;;;4953448;29;20414;-93
2023/09/23 11:28:21;;;;;;;4.43;3.70;;;16.40;17.80;;;;;;4953788;28;20465;-90
2023/09/23 11:30:50;;;;;;;4.63;3.33;;;16.40;17.70;;;;;;4956281;28;20058;-89
2023/09/23 11:33:18;;;;;;;5.25;2.75;;;16.30;15.80;;;;;;4956855;29;20502;-90
2023/09/23 11:35:50;;;;;;;6.90;2.78;;;16.30;11.90;;;;;;4956979;29;20058;-90
2023/09/23 11:38:20;;;;;;;5.10;2.65;;;16.30;8.90;;;;;;4958083;28;20101;-90
2023/09/23 11:40:46;;;;;;;4.40;3.10;;;16.30;2.50;;;;;;4956885;29;20055;-91
2023/09/23 11:43:15;;;;;;;;;;;16.30;1.00;;;;;;4941875;29;20055;-90
2023/09/23 11:45:41;;;;;;;5.20;3.75;;;16.20;1.00;;;;;;4956582;29;19923;-91
2023/09/23 11:48:08;;;;;;;5.22;3.10;;;16.20;9.00;;;;;;4957335;29;20055;-90
2023/09/23 11:50:35;;;;;;;3.80;3.33;;;16.30;11.50;;;;;;4957124;29;20043;-91
2023/09/23 11:53:03;;;;;;;4.85;2.97;;;16.80;10.40;;;;;;4973576;28;20051;-90
2023/09/23 11:55:32;;;;;;;4.75;2.50;;;16.80;4.60;;;;;;4958626;29;20055;-91
2023/09/23 11:58:00;;;;;;;4.18;2.80;;;16.90;3.10;;;;;;4957087;29;20059;-91
2023/09/23 12:00:28;;;;;;;4.75;2.60;;;16.90;1.00;;;;;;4957724;29;20082;-91
2023/09/23 12:02:57;;;;;;;2.90;2.30;;;17.00;1.00;;;;;;4957712;29;20050;-91
2023/09/23 12:05:28;;;;;;;2.85;2.28;;;17.00;1.00;;;;;;4957403;28;20129;-90
2023/09/23 12:07:59;;;;;;;3.42;2.10;;;17.10;1.00;;;;;;4958012;29;20143;-91
2023/09/23 12:10:29;;;;;;;4.72;2.65;;;17.10;1.00;;;;;;4957991;29;20113;-91
2023/09/23 12:13:04;;;;;;;7.70;2.30;;;17.00;1.00;;;;;;4958274;29;20063;-91
2023/09/23 12:15:31;;;;;;;3.20;2.10;;;17.10;1.00;;;;;;4959748;29;20052;-91
2023/09/23 12:18:00;;;;;;;2.83;1.90;;;16.90;1.00;;;;;;4957805;29;20054;-91
2023/09/23 12:20:27;;;;;;;3.03;1.63;;;16.80;1.00;;;;;;4958191;29;20047;-91
2023/09/23 12:22:57;;;;;;;2.58;1.70;;;16.60;1.00;;;;;;4957628;29;20122;-90
2023/09/23 12:25:25;;;;;;;3.85;1.77;;;16.50;1.00;;;;;;4957672;29;20051;-90
2023/09/23 12:27:51;;;;;;;4.70;2.10;;;16.40;1.00;;;;;;4956160;29;20498;-89
2023/09/23 12:30:19;;;;;;;4.00;2.28;;;16.30;4.30;;;;;;4956343;29;20051;-90
2023/09/23 12:32:45;;;;;;;6.45;2.95;;;16.20;7.30;;;;;;4956192;29;20445;-90
2023/09/23 12:35:11;;;;;;;2.95;2.67;;;16.00;14.70;;;;;;4940574;29;20054;-90
2023/09/23 12:37:40;;;;;;;4.45;2.95;;;15.90;23.20;;;;;;4956613;29;20129;-90
2023/09/23 12:40:11;;;;;;;4.80;2.75;;;15.80;28.70;;;;;;4956444;29;20476;-91
2023/09/23 12:42:42;;;;;;;4.15;2.95;;;15.60;35.70;;;;;;4956013;28;20083;-91
2023/09/23 12:45:16;;;;;;;3.85;2.83;;;15.50;44.30;;;;;;4941277;29;20047;-91
2023/09/23 12:47:44;;;;;;;6.55;3.67;;;15.50;46.90;;;;;;4956209;29;20050;-93
2023/09/23 12:50:12;;;;;;;5.75;3.88;;;16.10;53.00;;;;;;4956276;29;20051;-90
2023/09/23 12:52:38;;;;;;;6.32;3.80;;;15.40;57.10;;;;;;4956985;28;20053;-90
2023/09/23 12:55:07;;;;;;;6.85;2.75;;;15.40;60.90;;;;;;4955469;29;20052;-89
2023/09/23 12:57:46;;;;;;;;;;;;;;;;;;;;;